sensor_id;sensor_type;location;lat;lon;timestamp;P1;durP1;ratioP1;P2;durP2;ratioP2
55202;SDS011;41077;52.956;6.796;2023-05-19T00:01:21;17.88;;;6.78;;
55202;SDS011;41077;52.956;6.796;2023-05-19T00:03:52;15.23;;;6.88;;
55202;SDS011;41077;52.956;6.796;2023-05-19T00:06:23;14.35;;;6.50;;
55202;SDS011;41077;52.956;6.796;2023-05-19T00:08:52;11.15;;;6.43;;
55202;SDS011;41077;52.956;6.796;2023-05-19T00:11:21;15.90;;;5.95;;
55202;SDS011;41077;52.956;6.796;2023-05-19T00:13:47;17.25;;;7.50;;
55202;SDS011;41077;52.956;6.796;2023-05-19T00:16:15;15.13;;;7.07;;
55202;SDS011;41077;52.956;6.796;2023-05-19T00:18:41;19.23;;;7.00;;
55202;SDS011;41077;52.956;6.796;2023-05-19T00:21:07;18.23;;;7.90;;
55202;SDS011;41077;52.956;6.796;2023-05-19T00:23:34;20.08;;;7.25;;
55202;SDS011;41077;52.956;6.796;2023-05-19T00:26:00;18.65;;;7.53;;
55202;SDS011;41077;52.956;6.796;2023-05-19T00:28:26;17.77;;;7.20;;
55202;SDS011;41077;52.956;6.796;2023-05-19T00:30:52;15.35;;;8.20;;
55202;SDS011;41077;52.956;6.796;2023-05-19T00:33:18;17.10;;;8.55;;
55202;SDS011;41077;52.956;6.796;2023-05-19T00:35:44;18.15;;;6.45;;
55202;SDS011;41077;52.956;6.796;2023-05-19T00:38:10;20.88;;;7.72;;
55202;SDS011;41077;52.956;6.796;2023-05-19T00:40:36;14.02;;;7.15;;
55202;SDS011;41077;52.956;6.796;2023-05-19T00:43:02;16.02;;;8.10;;
55202;SDS011;41077;52.956;6.796;2023-05-19T00:45:29;14.63;;;8.85;;
55202;SDS011;41077;52.956;6.796;2023-05-19T00:47:55;17.67;;;7.63;;
55202;SDS011;41077;52.956;6.796;2023-05-19T00:50:21;13.63;;;8.40;;
55202;SDS011;41077;52.956;6.796;2023-05-19T00:52:49;21.08;;;7.68;;
55202;SDS011;41077;52.956;6.796;2023-05-19T00:55:15;18.20;;;7.20;;
55202;SDS011;41077;52.956;6.796;2023-05-19T00:57:41;16.40;;;7.25;;
55202;SDS011;41077;52.956;6.796;2023-05-19T01:00:08;21.73;;;8.20;;
55202;SDS011;41077;52.956;6.796;2023-05-19T01:02:35;16.75;;;8.23;;
55202;SDS011;41077;52.956;6.796;2023-05-19T01:05:02;14.50;;;7.32;;
55202;SDS011;41077;52.956;6.796;2023-05-19T01:07:28;20.58;;;7.90;;
55202;SDS011;41077;52.956;6.796;2023-05-19T01:09:54;18.08;;;7.15;;
55202;SDS011;41077;52.956;6.796;2023-05-19T01:12:20;15.55;;;7.60;;
55202;SDS011;41077;52.956;6.796;2023-05-19T01:14:46;19.42;;;9.13;;
55202;SDS011;41077;52.956;6.796;2023-05-19T01:25:18;17.88;;;7.30;;
55202;SDS011;41077;52.956;6.796;2023-05-19T01:30:24;15.95;;;7.75;;
55202;SDS011;41077;52.956;6.796;2023-05-19T01:32:56;18.40;;;7.63;;
55202;SDS011;41077;52.956;6.796;2023-05-19T01:35:23;13.30;;;6.97;;
55202;SDS011;41077;52.956;6.796;2023-05-19T01:37:54;16.40;;;8.27;;
55202;SDS011;41077;52.956;6.796;2023-05-19T01:40:20;16.23;;;7.15;;
55202;SDS011;41077;52.956;6.796;2023-05-19T01:42:47;20.52;;;7.57;;
55202;SDS011;41077;52.956;6.796;2023-05-19T01:45:14;16.13;;;7.57;;
55202;SDS011;41077;52.956;6.796;2023-05-19T01:47:41;15.32;;;7.35;;
55202;SDS011;41077;52.956;6.796;2023-05-19T01:50:07;15.43;;;6.95;;
55202;SDS011;41077;52.956;6.796;2023-05-19T01:52:33;16.33;;;6.97;;
55202;SDS011;41077;52.956;6.796;2023-05-19T01:55:00;12.43;;;7.10;;
55202;SDS011;41077;52.956;6.796;2023-05-19T02:02:35;20.30;;;7.93;;
55202;SDS011;41077;52.956;6.796;2023-05-19T02:05:08;19.45;;;7.45;;
55202;SDS011;41077;52.956;6.796;2023-05-19T02:07:46;14.20;;;7.07;;
55202;SDS011;41077;52.956;6.796;2023-05-19T02:10:15;21.15;;;6.85;;
55202;SDS011;41077;52.956;6.796;2023-05-19T02:12:42;16.45;;;6.70;;
55202;SDS011;41077;52.956;6.796;2023-05-19T02:15:12;15.90;;;7.35;;
55202;SDS011;41077;52.956;6.796;2023-05-19T02:17:39;16.35;;;7.35;;
55202;SDS011;41077;52.956;6.796;2023-05-19T02:20:06;15.82;;;5.97;;
55202;SDS011;41077;52.956;6.796;2023-05-19T02:22:33;13.80;;;6.05;;
55202;SDS011;41077;52.956;6.796;2023-05-19T02:24:59;18.45;;;7.43;;
55202;SDS011;41077;52.956;6.796;2023-05-19T02:27:25;15.95;;;7.65;;
55202;SDS011;41077;52.956;6.796;2023-05-19T02:29:51;15.02;;;6.57;;
55202;SDS011;41077;52.956;6.796;2023-05-19T02:32:18;18.13;;;6.75;;
55202;SDS011;41077;52.956;6.796;2023-05-19T02:34:44;22.52;;;7.53;;
55202;SDS011;41077;52.956;6.796;2023-05-19T02:37:11;18.23;;;6.63;;
55202;SDS011;41077;52.956;6.796;2023-05-19T02:39:38;14.25;;;7.25;;
55202;SDS011;41077;52.956;6.796;2023-05-19T02:42:04;16.63;;;6.60;;
55202;SDS011;41077;52.956;6.796;2023-05-19T02:44:30;18.58;;;7.72;;
55202;SDS011;41077;52.956;6.796;2023-05-19T02:46:56;16.90;;;7.30;;
55202;SDS011;41077;52.956;6.796;2023-05-19T02:49:22;22.00;;;7.07;;
55202;SDS011;41077;52.956;6.796;2023-05-19T02:51:48;17.02;;;6.35;;
55202;SDS011;41077;52.956;6.796;2023-05-19T02:54:14;15.43;;;6.95;;
55202;SDS011;41077;52.956;6.796;2023-05-19T02:56:40;17.70;;;6.53;;
55202;SDS011;41077;52.956;6.796;2023-05-19T02:59:07;14.32;;;7.15;;
55202;SDS011;41077;52.956;6.796;2023-05-19T03:01:33;15.13;;;6.72;;
55202;SDS011;41077;52.956;6.796;2023-05-19T03:03:59;13.25;;;6.78;;
55202;SDS011;41077;52.956;6.796;2023-05-19T03:06:25;14.23;;;7.90;;
55202;SDS011;41077;52.956;6.796;2023-05-19T03:08:51;16.25;;;7.30;;
55202;SDS011;41077;52.956;6.796;2023-05-19T03:11:17;18.95;;;8.07;;
55202;SDS011;41077;52.956;6.796;2023-05-19T03:13:43;24.67;;;9.07;;
55202;SDS011;41077;52.956;6.796;2023-05-19T03:16:09;17.15;;;7.65;;
55202;SDS011;41077;52.956;6.796;2023-05-19T03:18:35;19.45;;;7.50;;
55202;SDS011;41077;52.956;6.796;2023-05-19T03:21:01;14.20;;;7.18;;
55202;SDS011;41077;52.956;6.796;2023-05-19T03:23:28;23.80;;;7.45;;
55202;SDS011;41077;52.956;6.796;2023-05-19T03:25:54;12.68;;;7.10;;
55202;SDS011;41077;52.956;6.796;2023-05-19T03:28:20;14.20;;;6.97;;
55202;SDS011;41077;52.956;6.796;2023-05-19T03:30:51;18.65;;;8.10;;
55202;SDS011;41077;52.956;6.796;2023-05-19T03:33:17;16.52;;;7.68;;
55202;SDS011;41077;52.956;6.796;2023-05-19T03:35:44;17.85;;;8.60;;
55202;SDS011;41077;52.956;6.796;2023-05-19T03:38:10;19.90;;;8.10;;
55202;SDS011;41077;52.956;6.796;2023-05-19T03:40:36;18.70;;;8.48;;
55202;SDS011;41077;52.956;6.796;2023-05-19T03:43:02;15.32;;;8.30;;
55202;SDS011;41077;52.956;6.796;2023-05-19T03:45:28;16.00;;;7.85;;
55202;SDS011;41077;52.956;6.796;2023-05-19T03:47:54;24.10;;;8.80;;
55202;SDS011;41077;52.956;6.796;2023-05-19T03:50:20;19.73;;;8.40;;
55202;SDS011;41077;52.956;6.796;2023-05-19T03:52:46;16.55;;;7.97;;
55202;SDS011;41077;52.956;6.796;2023-05-19T03:55:13;13.25;;;7.28;;
55202;SDS011;41077;52.956;6.796;2023-05-19T03:57:39;15.80;;;8.07;;
55202;SDS011;41077;52.956;6.796;2023-05-19T04:00:06;16.42;;;7.97;;
55202;SDS011;41077;52.956;6.796;2023-05-19T04:02:33;18.90;;;7.78;;
55202;SDS011;41077;52.956;6.796;2023-05-19T04:04:59;15.20;;;8.43;;
55202;SDS011;41077;52.956;6.796;2023-05-19T04:07:25;20.25;;;8.90;;
55202;SDS011;41077;52.956;6.796;2023-05-19T04:09:51;15.40;;;8.88;;
55202;SDS011;41077;52.956;6.796;2023-05-19T04:12:17;22.38;;;9.00;;
55202;SDS011;41077;52.956;6.796;2023-05-19T04:14:43;16.05;;;8.45;;
55202;SDS011;41077;52.956;6.796;2023-05-19T04:17:09;17.42;;;9.10;;
55202;SDS011;41077;52.956;6.796;2023-05-19T04:19:35;19.65;;;8.85;;
55202;SDS011;41077;52.956;6.796;2023-05-19T04:22:01;17.27;;;8.02;;
55202;SDS011;41077;52.956;6.796;2023-05-19T04:24:27;23.55;;;8.52;;
55202;SDS011;41077;52.956;6.796;2023-05-19T04:26:53;14.55;;;8.98;;
55202;SDS011;41077;52.956;6.796;2023-05-19T04:29:20;24.08;;;9.27;;
55202;SDS011;41077;52.956;6.796;2023-05-19T04:31:47;16.92;;;8.48;;
55202;SDS011;41077;52.956;6.796;2023-05-19T04:34:13;18.52;;;9.05;;
55202;SDS011;41077;52.956;6.796;2023-05-19T04:36:39;20.55;;;8.82;;
55202;SDS011;41077;52.956;6.796;2023-05-19T04:39:06;21.55;;;8.35;;
55202;SDS011;41077;52.956;6.796;2023-05-19T04:41:34;26.67;;;9.05;;
55202;SDS011;41077;52.956;6.796;2023-05-19T04:44:00;18.73;;;9.10;;
55202;SDS011;41077;52.956;6.796;2023-05-19T04:46:26;15.82;;;8.27;;
55202;SDS011;41077;52.956;6.796;2023-05-19T04:48:54;19.48;;;8.88;;
55202;SDS011;41077;52.956;6.796;2023-05-19T04:51:21;18.00;;;7.60;;
55202;SDS011;41077;52.956;6.796;2023-05-19T04:53:52;17.88;;;8.88;;
55202;SDS011;41077;52.956;6.796;2023-05-19T04:56:18;15.70;;;9.52;;
55202;SDS011;41077;52.956;6.796;2023-05-19T04:58:44;19.50;;;9.07;;
55202;SDS011;41077;52.956;6.796;2023-05-19T05:01:10;16.95;;;9.65;;
55202;SDS011;41077;52.956;6.796;2023-05-19T05:03:38;18.73;;;9.05;;
55202;SDS011;41077;52.956;6.796;2023-05-19T05:06:04;19.63;;;10.35;;
55202;SDS011;41077;52.956;6.796;2023-05-19T05:08:30;15.30;;;8.55;;
55202;SDS011;41077;52.956;6.796;2023-05-19T05:10:57;18.25;;;8.82;;
55202;SDS011;41077;52.956;6.796;2023-05-19T05:13:23;16.85;;;9.13;;
55202;SDS011;41077;52.956;6.796;2023-05-19T05:15:49;24.63;;;10.68;;
55202;SDS011;41077;52.956;6.796;2023-05-19T05:18:20;15.27;;;8.52;;
55202;SDS011;41077;52.956;6.796;2023-05-19T05:20:47;19.52;;;8.32;;
55202;SDS011;41077;52.956;6.796;2023-05-19T05:23:13;17.33;;;9.55;;
55202;SDS011;41077;52.956;6.796;2023-05-19T05:25:40;21.80;;;8.90;;
55202;SDS011;41077;52.956;6.796;2023-05-19T05:28:07;18.08;;;8.88;;
55202;SDS011;41077;52.956;6.796;2023-05-19T05:30:33;19.60;;;9.15;;
55202;SDS011;41077;52.956;6.796;2023-05-19T05:33:00;22.83;;;9.75;;
55202;SDS011;41077;52.956;6.796;2023-05-19T05:35:26;24.67;;;11.40;;
55202;SDS011;41077;52.956;6.796;2023-05-19T05:37:52;16.20;;;10.02;;
55202;SDS011;41077;52.956;6.796;2023-05-19T05:40:18;21.60;;;10.85;;
55202;SDS011;41077;52.956;6.796;2023-05-19T05:42:44;19.70;;;10.38;;
55202;SDS011;41077;52.956;6.796;2023-05-19T05:45:11;20.27;;;10.25;;
55202;SDS011;41077;52.956;6.796;2023-05-19T05:47:37;23.08;;;10.32;;
55202;SDS011;41077;52.956;6.796;2023-05-19T05:50:05;21.42;;;10.75;;
55202;SDS011;41077;52.956;6.796;2023-05-19T05:52:31;17.85;;;9.57;;
55202;SDS011;41077;52.956;6.796;2023-05-19T05:54:58;19.55;;;9.68;;
55202;SDS011;41077;52.956;6.796;2023-05-19T05:57:24;16.75;;;9.07;;
55202;SDS011;41077;52.956;6.796;2023-05-19T05:59:51;18.95;;;8.68;;
55202;SDS011;41077;52.956;6.796;2023-05-19T06:02:17;16.40;;;9.88;;
55202;SDS011;41077;52.956;6.796;2023-05-19T06:04:43;13.43;;;9.02;;
55202;SDS011;41077;52.956;6.796;2023-05-19T06:07:09;19.38;;;9.88;;
55202;SDS011;41077;52.956;6.796;2023-05-19T06:09:35;14.90;;;9.15;;
55202;SDS011;41077;52.956;6.796;2023-05-19T06:12:01;19.13;;;8.80;;
55202;SDS011;41077;52.956;6.796;2023-05-19T06:14:28;17.73;;;9.10;;
55202;SDS011;41077;52.956;6.796;2023-05-19T06:16:54;19.05;;;9.18;;
55202;SDS011;41077;52.956;6.796;2023-05-19T06:19:20;15.40;;;8.20;;
55202;SDS011;41077;52.956;6.796;2023-05-19T06:21:46;19.40;;;7.95;;
55202;SDS011;41077;52.956;6.796;2023-05-19T06:24:12;13.05;;;6.97;;
55202;SDS011;41077;52.956;6.796;2023-05-19T06:26:38;16.00;;;7.53;;
55202;SDS011;41077;52.956;6.796;2023-05-19T06:29:04;16.60;;;6.85;;
55202;SDS011;41077;52.956;6.796;2023-05-19T06:31:29;14.70;;;6.70;;
55202;SDS011;41077;52.956;6.796;2023-05-19T06:33:57;13.30;;;6.07;;
55202;SDS011;41077;52.956;6.796;2023-05-19T06:36:23;10.52;;;5.70;;
55202;SDS011;41077;52.956;6.796;2023-05-19T06:38:49;13.93;;;6.85;;
55202;SDS011;41077;52.956;6.796;2023-05-19T06:41:15;14.63;;;5.95;;
55202;SDS011;41077;52.956;6.796;2023-05-19T06:43:41;10.90;;;5.03;;
55202;SDS011;41077;52.956;6.796;2023-05-19T06:46:07;12.95;;;5.07;;
55202;SDS011;41077;52.956;6.796;2023-05-19T06:48:33;11.70;;;4.75;;
55202;SDS011;41077;52.956;6.796;2023-05-19T06:50:58;11.93;;;4.95;;
55202;SDS011;41077;52.956;6.796;2023-05-19T06:53:24;9.68;;;4.00;;
55202;SDS011;41077;52.956;6.796;2023-05-19T06:55:50;8.48;;;4.20;;
55202;SDS011;41077;52.956;6.796;2023-05-19T06:58:16;11.68;;;4.07;;
55202;SDS011;41077;52.956;6.796;2023-05-19T07:00:41;12.32;;;4.75;;
55202;SDS011;41077;52.956;6.796;2023-05-19T07:03:07;9.77;;;3.88;;
55202;SDS011;41077;52.956;6.796;2023-05-19T07:05:33;11.05;;;4.45;;
55202;SDS011;41077;52.956;6.796;2023-05-19T07:07:59;8.80;;;3.42;;
55202;SDS011;41077;52.956;6.796;2023-05-19T07:10:25;11.98;;;3.97;;
55202;SDS011;41077;52.956;6.796;2023-05-19T07:12:51;12.35;;;3.55;;
55202;SDS011;41077;52.956;6.796;2023-05-19T07:15:17;8.77;;;3.63;;
55202;SDS011;41077;52.956;6.796;2023-05-19T07:17:43;10.43;;;3.28;;
55202;SDS011;41077;52.956;6.796;2023-05-19T07:20:09;10.77;;;3.30;;
55202;SDS011;41077;52.956;6.796;2023-05-19T07:22:35;10.23;;;4.13;;
55202;SDS011;41077;52.956;6.796;2023-05-19T07:25:02;11.93;;;4.38;;
55202;SDS011;41077;52.956;6.796;2023-05-19T07:27:28;9.45;;;3.53;;
55202;SDS011;41077;52.956;6.796;2023-05-19T07:29:54;11.65;;;3.80;;
55202;SDS011;41077;52.956;6.796;2023-05-19T07:32:19;15.50;;;3.60;;
55202;SDS011;41077;52.956;6.796;2023-05-19T07:34:45;7.47;;;3.65;;
55202;SDS011;41077;52.956;6.796;2023-05-19T07:37:11;12.18;;;4.97;;
55202;SDS011;41077;52.956;6.796;2023-05-19T07:39:36;12.18;;;3.97;;
55202;SDS011;41077;52.956;6.796;2023-05-19T07:42:02;10.48;;;3.95;;
55202;SDS011;41077;52.956;6.796;2023-05-19T07:44:28;8.75;;;3.25;;
55202;SDS011;41077;52.956;6.796;2023-05-19T07:46:55;11.85;;;4.03;;
55202;SDS011;41077;52.956;6.796;2023-05-19T07:49:21;11.48;;;3.58;;
55202;SDS011;41077;52.956;6.796;2023-05-19T07:51:47;11.05;;;3.40;;
55202;SDS011;41077;52.956;6.796;2023-05-19T07:54:13;9.73;;;3.90;;
55202;SDS011;41077;52.956;6.796;2023-05-19T07:56:39;10.50;;;3.35;;
55202;SDS011;41077;52.956;6.796;2023-05-19T07:59:05;11.85;;;3.30;;
55202;SDS011;41077;52.956;6.796;2023-05-19T08:01:32;10.05;;;3.22;;
55202;SDS011;41077;52.956;6.796;2023-05-19T08:03:58;8.48;;;3.33;;
55202;SDS011;41077;52.956;6.796;2023-05-19T08:06:24;5.80;;;2.78;;
55202;SDS011;41077;52.956;6.796;2023-05-19T08:08:49;8.80;;;3.00;;
55202;SDS011;41077;52.956;6.796;2023-05-19T08:11:16;9.45;;;2.97;;
55202;SDS011;41077;52.956;6.796;2023-05-19T08:13:42;10.30;;;3.55;;
55202;SDS011;41077;52.956;6.796;2023-05-19T08:16:07;7.80;;;3.38;;
55202;SDS011;41077;52.956;6.796;2023-05-19T08:18:33;8.15;;;3.20;;
55202;SDS011;41077;52.956;6.796;2023-05-19T08:20:58;8.68;;;3.40;;
55202;SDS011;41077;52.956;6.796;2023-05-19T08:23:25;6.95;;;2.95;;
55202;SDS011;41077;52.956;6.796;2023-05-19T08:25:51;8.23;;;3.33;;
55202;SDS011;41077;52.956;6.796;2023-05-19T08:28:16;7.03;;;3.22;;
55202;SDS011;41077;52.956;6.796;2023-05-19T08:30:42;5.15;;;2.75;;
55202;SDS011;41077;52.956;6.796;2023-05-19T08:33:08;6.70;;;2.83;;
55202;SDS011;41077;52.956;6.796;2023-05-19T08:35:35;6.72;;;3.38;;
55202;SDS011;41077;52.956;6.796;2023-05-19T08:38:00;6.78;;;2.90;;
55202;SDS011;41077;52.956;6.796;2023-05-19T08:40:26;10.05;;;3.33;;
55202;SDS011;41077;52.956;6.796;2023-05-19T08:42:55;10.38;;;3.30;;
55202;SDS011;41077;52.956;6.796;2023-05-19T08:45:21;7.00;;;2.42;;
55202;SDS011;41077;52.956;6.796;2023-05-19T08:47:46;10.18;;;3.03;;
55202;SDS011;41077;52.956;6.796;2023-05-19T08:50:20;10.13;;;3.53;;
55202;SDS011;41077;52.956;6.796;2023-05-19T08:53:25;4.78;;;2.78;;
55202;SDS011;41077;52.956;6.796;2023-05-19T08:58:25;8.90;;;3.10;;
55202;SDS011;41077;52.956;6.796;2023-05-19T09:00:52;14.23;;;3.50;;
55202;SDS011;41077;52.956;6.796;2023-05-19T09:03:20;14.70;;;3.58;;
55202;SDS011;41077;52.956;6.796;2023-05-19T09:05:45;6.97;;;3.03;;
55202;SDS011;41077;52.956;6.796;2023-05-19T09:08:12;7.28;;;3.17;;
55202;SDS011;41077;52.956;6.796;2023-05-19T09:10:38;7.20;;;3.13;;
55202;SDS011;41077;52.956;6.796;2023-05-19T09:13:04;10.05;;;3.53;;
55202;SDS011;41077;52.956;6.796;2023-05-19T09:15:29;12.05;;;3.42;;
55202;SDS011;41077;52.956;6.796;2023-05-19T09:18:15;6.55;;;3.20;;
55202;SDS011;41077;52.956;6.796;2023-05-19T09:20:42;12.50;;;3.03;;
55202;SDS011;41077;52.956;6.796;2023-05-19T09:23:12;8.43;;;3.00;;
55202;SDS011;41077;52.956;6.796;2023-05-19T09:25:49;7.65;;;3.10;;
55202;SDS011;41077;52.956;6.796;2023-05-19T09:28:25;6.95;;;2.97;;
55202;SDS011;41077;52.956;6.796;2023-05-19T09:33:29;5.25;;;2.90;;
55202;SDS011;41077;52.956;6.796;2023-05-19T09:35:57;10.88;;;3.45;;
55202;SDS011;41077;52.956;6.796;2023-05-19T09:38:23;13.25;;;3.10;;
55202;SDS011;41077;52.956;6.796;2023-05-19T09:40:50;9.80;;;3.42;;
55202;SDS011;41077;52.956;6.796;2023-05-19T09:43:16;8.77;;;3.45;;
55202;SDS011;41077;52.956;6.796;2023-05-19T09:45:42;8.63;;;2.80;;
55202;SDS011;41077;52.956;6.796;2023-05-19T09:48:08;10.25;;;3.00;;
55202;SDS011;41077;52.956;6.796;2023-05-19T09:50:34;14.02;;;3.03;;
55202;SDS011;41077;52.956;6.796;2023-05-19T09:52:59;10.50;;;3.28;;
55202;SDS011;41077;52.956;6.796;2023-05-19T09:55:27;7.78;;;2.80;;
55202;SDS011;41077;52.956;6.796;2023-05-19T09:57:56;7.35;;;2.83;;
55202;SDS011;41077;52.956;6.796;2023-05-19T10:00:21;10.00;;;2.83;;
55202;SDS011;41077;52.956;6.796;2023-05-19T10:02:48;8.57;;;3.22;;
55202;SDS011;41077;52.956;6.796;2023-05-19T10:05:17;8.10;;;2.50;;
55202;SDS011;41077;52.956;6.796;2023-05-19T10:07:49;9.90;;;3.55;;
55202;SDS011;41077;52.956;6.796;2023-05-19T10:10:16;9.57;;;3.25;;
55202;SDS011;41077;52.956;6.796;2023-05-19T10:12:44;6.55;;;2.53;;
55202;SDS011;41077;52.956;6.796;2023-05-19T10:15:12;8.20;;;2.83;;
55202;SDS011;41077;52.956;6.796;2023-05-19T10:17:39;9.93;;;2.90;;
55202;SDS011;41077;52.956;6.796;2023-05-19T10:20:07;6.95;;;2.85;;
55202;SDS011;41077;52.956;6.796;2023-05-19T10:22:35;10.68;;;2.67;;
55202;SDS011;41077;52.956;6.796;2023-05-19T10:25:02;14.23;;;3.38;;
55202;SDS011;41077;52.956;6.796;2023-05-19T10:27:28;5.65;;;2.85;;
55202;SDS011;41077;52.956;6.796;2023-05-19T10:29:56;7.25;;;2.75;;
55202;SDS011;41077;52.956;6.796;2023-05-19T10:32:27;11.10;;;3.30;;
55202;SDS011;41077;52.956;6.796;2023-05-19T10:40:26;10.98;;;3.00;;
55202;SDS011;41077;52.956;6.796;2023-05-19T10:43:12;8.35;;;3.00;;
55202;SDS011;41077;52.956;6.796;2023-05-19T10:45:50;10.13;;;2.92;;
55202;SDS011;41077;52.956;6.796;2023-05-19T10:48:20;7.60;;;3.03;;
55202;SDS011;41077;52.956;6.796;2023-05-19T10:50:47;13.98;;;3.20;;
55202;SDS011;41077;52.956;6.796;2023-05-19T10:53:16;7.10;;;2.63;;
55202;SDS011;41077;52.956;6.796;2023-05-19T10:58:14;9.73;;;3.10;;
55202;SDS011;41077;52.956;6.796;2023-05-19T11:01:00;8.75;;;3.17;;
55202;SDS011;41077;52.956;6.796;2023-05-19T11:03:25;6.47;;;2.50;;
55202;SDS011;41077;52.956;6.796;2023-05-19T11:06:15;8.90;;;3.00;;
55202;SDS011;41077;52.956;6.796;2023-05-19T11:11:25;12.15;;;3.13;;
55202;SDS011;41077;52.956;6.796;2023-05-19T11:13:53;10.25;;;3.25;;
55202;SDS011;41077;52.956;6.796;2023-05-19T11:16:29;9.30;;;2.70;;
55202;SDS011;41077;52.956;6.796;2023-05-19T11:18:59;9.20;;;3.10;;
55202;SDS011;41077;52.956;6.796;2023-05-19T11:22:08;8.13;;;2.65;;
55202;SDS011;41077;52.956;6.796;2023-05-19T11:24:32;8.82;;;2.88;;
55202;SDS011;41077;52.956;6.796;2023-05-19T11:26:58;9.07;;;2.70;;
55202;SDS011;41077;52.956;6.796;2023-05-19T11:29:41;8.00;;;2.58;;
55202;SDS011;41077;52.956;6.796;2023-05-19T11:32:07;7.88;;;2.70;;
55202;SDS011;41077;52.956;6.796;2023-05-19T11:34:35;7.40;;;2.60;;
55202;SDS011;41077;52.956;6.796;2023-05-19T11:37:03;6.13;;;2.40;;
55202;SDS011;41077;52.956;6.796;2023-05-19T11:39:29;11.65;;;2.80;;
55202;SDS011;41077;52.956;6.796;2023-05-19T11:41:55;9.43;;;2.83;;
55202;SDS011;41077;52.956;6.796;2023-05-19T11:44:21;8.32;;;2.60;;
55202;SDS011;41077;52.956;6.796;2023-05-19T11:46:47;8.05;;;2.45;;
55202;SDS011;41077;52.956;6.796;2023-05-19T11:49:13;9.00;;;2.40;;
55202;SDS011;41077;52.956;6.796;2023-05-19T11:51:43;8.38;;;2.53;;
55202;SDS011;41077;52.956;6.796;2023-05-19T11:54:10;10.48;;;3.17;;
55202;SDS011;41077;52.956;6.796;2023-05-19T11:56:39;8.68;;;2.47;;
55202;SDS011;41077;52.956;6.796;2023-05-19T11:59:05;5.90;;;2.72;;
55202;SDS011;41077;52.956;6.796;2023-05-19T12:01:32;8.95;;;2.78;;
55202;SDS011;41077;52.956;6.796;2023-05-19T12:03:58;10.10;;;3.08;;
55202;SDS011;41077;52.956;6.796;2023-05-19T12:06:25;8.77;;;2.38;;
55202;SDS011;41077;52.956;6.796;2023-05-19T12:08:53;13.25;;;2.40;;
55202;SDS011;41077;52.956;6.796;2023-05-19T12:11:19;6.28;;;2.58;;
55202;SDS011;41077;52.956;6.796;2023-05-19T12:13:46;10.95;;;2.97;;
55202;SDS011;41077;52.956;6.796;2023-05-19T12:16:12;6.07;;;2.20;;
55202;SDS011;41077;52.956;6.796;2023-05-19T12:18:38;6.82;;;2.60;;
55202;SDS011;41077;52.956;6.796;2023-05-19T12:21:06;6.03;;;2.13;;
55202;SDS011;41077;52.956;6.796;2023-05-19T12:23:32;9.60;;;3.03;;
55202;SDS011;41077;52.956;6.796;2023-05-19T12:25:59;9.45;;;2.10;;
55202;SDS011;41077;52.956;6.796;2023-05-19T12:28:25;7.63;;;2.50;;
55202;SDS011;41077;52.956;6.796;2023-05-19T12:30:54;5.38;;;2.20;;
55202;SDS011;41077;52.956;6.796;2023-05-19T12:33:22;8.55;;;2.00;;
55202;SDS011;41077;52.956;6.796;2023-05-19T12:35:49;5.22;;;1.83;;
55202;SDS011;41077;52.956;6.796;2023-05-19T12:38:15;8.07;;;3.00;;
55202;SDS011;41077;52.956;6.796;2023-05-19T12:40:42;8.35;;;3.03;;
55202;SDS011;41077;52.956;6.796;2023-05-19T12:43:07;6.70;;;2.80;;
55202;SDS011;41077;52.956;6.796;2023-05-19T12:45:43;5.70;;;2.20;;
55202;SDS011;41077;52.956;6.796;2023-05-19T12:48:12;7.25;;;2.42;;
55202;SDS011;41077;52.956;6.796;2023-05-19T12:50:42;7.90;;;2.53;;
55202;SDS011;41077;52.956;6.796;2023-05-19T12:53:14;6.38;;;2.20;;
55202;SDS011;41077;52.956;6.796;2023-05-19T12:55:40;10.10;;;2.22;;
55202;SDS011;41077;52.956;6.796;2023-05-19T12:58:07;7.78;;;2.20;;
55202;SDS011;41077;52.956;6.796;2023-05-19T13:00:33;7.93;;;2.22;;
55202;SDS011;41077;52.956;6.796;2023-05-19T13:03:05;7.38;;;2.20;;
55202;SDS011;41077;52.956;6.796;2023-05-19T13:05:33;5.85;;;2.30;;
55202;SDS011;41077;52.956;6.796;2023-05-19T13:08:06;10.48;;;3.85;;
55202;SDS011;41077;52.956;6.796;2023-05-19T13:10:34;11.38;;;3.33;;
55202;SDS011;41077;52.956;6.796;2023-05-19T13:13:01;11.90;;;3.10;;
55202;SDS011;41077;52.956;6.796;2023-05-19T13:15:28;9.65;;;2.50;;
55202;SDS011;41077;52.956;6.796;2023-05-19T13:18:05;9.38;;;2.55;;
55202;SDS011;41077;52.956;6.796;2023-05-19T13:20:33;6.30;;;2.50;;
55202;SDS011;41077;52.956;6.796;2023-05-19T13:22:59;7.75;;;2.50;;
55202;SDS011;41077;52.956;6.796;2023-05-19T13:25:25;6.07;;;2.58;;
55202;SDS011;41077;52.956;6.796;2023-05-19T13:27:52;7.75;;;2.50;;
55202;SDS011;41077;52.956;6.796;2023-05-19T13:30:19;6.63;;;3.10;;
55202;SDS011;41077;52.956;6.796;2023-05-19T13:32:45;9.07;;;2.83;;
55202;SDS011;41077;52.956;6.796;2023-05-19T13:35:12;9.98;;;3.08;;
55202;SDS011;41077;52.956;6.796;2023-05-19T13:37:40;8.18;;;2.65;;
55202;SDS011;41077;52.956;6.796;2023-05-19T13:40:06;9.68;;;2.97;;
55202;SDS011;41077;52.956;6.796;2023-05-19T13:42:32;7.60;;;2.67;;
55202;SDS011;41077;52.956;6.796;2023-05-19T13:44:59;10.73;;;2.88;;
55202;SDS011;41077;52.956;6.796;2023-05-19T13:47:25;10.07;;;2.63;;
55202;SDS011;41077;52.956;6.796;2023-05-19T13:49:51;6.22;;;2.80;;
55202;SDS011;41077;52.956;6.796;2023-05-19T13:52:17;7.68;;;2.75;;
55202;SDS011;41077;52.956;6.796;2023-05-19T13:54:44;5.53;;;2.22;;
55202;SDS011;41077;52.956;6.796;2023-05-19T13:57:11;11.23;;;3.40;;
55202;SDS011;41077;52.956;6.796;2023-05-19T13:59:36;10.93;;;2.78;;
55202;SDS011;41077;52.956;6.796;2023-05-19T14:02:02;8.02;;;3.00;;
55202;SDS011;41077;52.956;6.796;2023-05-19T14:04:29;7.38;;;3.08;;
55202;SDS011;41077;52.956;6.796;2023-05-19T14:06:55;8.98;;;3.47;;
55202;SDS011;41077;52.956;6.796;2023-05-19T14:09:21;7.47;;;2.58;;
55202;SDS011;41077;52.956;6.796;2023-05-19T14:11:47;7.45;;;2.70;;
55202;SDS011;41077;52.956;6.796;2023-05-19T14:14:12;8.48;;;3.03;;
55202;SDS011;41077;52.956;6.796;2023-05-19T14:16:39;6.70;;;2.83;;
55202;SDS011;41077;52.956;6.796;2023-05-19T14:19:05;5.25;;;2.85;;
55202;SDS011;41077;52.956;6.796;2023-05-19T14:21:31;8.20;;;2.85;;
55202;SDS011;41077;52.956;6.796;2023-05-19T14:23:56;12.00;;;2.60;;
55202;SDS011;41077;52.956;6.796;2023-05-19T14:26:22;10.32;;;2.78;;
55202;SDS011;41077;52.956;6.796;2023-05-19T14:28:48;12.70;;;3.53;;
55202;SDS011;41077;52.956;6.796;2023-05-19T14:31:14;8.10;;;2.53;;
55202;SDS011;41077;52.956;6.796;2023-05-19T14:33:40;11.43;;;3.00;;
55202;SDS011;41077;52.956;6.796;2023-05-19T14:36:07;8.95;;;3.30;;
55202;SDS011;41077;52.956;6.796;2023-05-19T14:38:33;9.02;;;3.80;;
55202;SDS011;41077;52.956;6.796;2023-05-19T14:40:58;10.73;;;3.42;;
55202;SDS011;41077;52.956;6.796;2023-05-19T14:43:24;11.15;;;3.95;;
55202;SDS011;41077;52.956;6.796;2023-05-19T14:45:50;5.68;;;2.80;;
55202;SDS011;41077;52.956;6.796;2023-05-19T14:48:16;8.77;;;3.88;;
55202;SDS011;41077;52.956;6.796;2023-05-19T14:50:41;7.40;;;2.97;;
55202;SDS011;41077;52.956;6.796;2023-05-19T14:53:07;7.38;;;3.40;;
55202;SDS011;41077;52.956;6.796;2023-05-19T14:55:33;7.30;;;2.75;;
55202;SDS011;41077;52.956;6.796;2023-05-19T14:57:59;6.22;;;2.60;;
55202;SDS011;41077;52.956;6.796;2023-05-19T15:00:25;5.68;;;3.05;;
55202;SDS011;41077;52.956;6.796;2023-05-19T15:02:53;6.03;;;2.75;;
55202;SDS011;41077;52.956;6.796;2023-05-19T15:05:20;5.30;;;2.72;;
55202;SDS011;41077;52.956;6.796;2023-05-19T15:07:48;10.50;;;3.45;;
55202;SDS011;41077;52.956;6.796;2023-05-19T15:10:14;6.55;;;2.78;;